createdAt,value
2022-10-29T00:00:51.192Z,13.20
2022-10-29T00:03:20.360Z,14.20
2022-10-29T00:05:57.076Z,13.90
2022-10-29T00:08:25.262Z,14.20
2022-10-29T00:10:54.568Z,14.60
2022-10-29T00:13:22.670Z,13.50
2022-10-29T00:15:50.629Z,14.70
2022-10-29T00:18:18.580Z,14.40
2022-10-29T00:20:46.515Z,13.60
2022-10-29T00:23:14.480Z,14.70
2022-10-29T00:25:42.428Z,14.10
2022-10-29T00:28:11.701Z,13.70
2022-10-29T00:30:39.626Z,13.50
2022-10-29T00:33:07.606Z,13.90
2022-10-29T00:35:35.587Z,12.90
2022-10-29T00:38:03.563Z,13.60
2022-10-29T00:40:31.492Z,13.50
2022-10-29T00:43:15.097Z,14.40
2022-10-29T00:45:47.818Z,13.40
2022-10-29T00:48:15.848Z,14.20
2022-10-29T00:50:44.828Z,13.40
2022-10-29T00:53:13.296Z,14.00
2022-10-29T00:55:42.077Z,14.50
2022-10-29T00:58:12.453Z,13.40
2022-10-29T01:00:41.920Z,13.60
2022-10-29T01:03:09.965Z,13.40
2022-10-29T01:05:38.348Z,14.10
2022-10-29T01:08:07.101Z,14.30
2022-10-29T01:10:50.845Z,13.30
2022-10-29T01:13:34.353Z,14.00
2022-10-29T01:16:12.155Z,13.70
2022-10-29T01:18:48.435Z,13.50
2022-10-29T01:21:38.957Z,14.00
2022-10-29T01:24:36.676Z,13.40
2022-10-29T01:27:31.762Z,13.30
2022-10-29T01:30:13.896Z,13.40
2022-10-29T01:32:55.061Z,13.30
2022-10-29T01:35:31.251Z,14.10
2022-10-29T01:38:11.208Z,14.10
2022-10-29T01:40:47.858Z,13.90
2022-10-29T01:45:53.991Z,13.40
2022-10-29T01:48:33.123Z,13.80
2022-10-29T01:51:05.775Z,13.40
2022-10-29T01:53:37.318Z,13.50
2022-10-29T01:56:05.842Z,13.50
2022-10-29T01:58:35.210Z,13.40
2022-10-29T02:01:13.877Z,14.20
2022-10-29T02:03:53.151Z,13.20
2022-10-29T02:06:33.757Z,14.10
2022-10-29T02:09:10.079Z,13.90
2022-10-29T02:11:46.285Z,13.20
2022-10-29T02:14:20.031Z,13.10
2022-10-29T02:16:49.091Z,13.50
2022-10-29T02:19:18.407Z,13.10
2022-10-29T02:21:46.334Z,13.80
2022-10-29T02:24:14.364Z,14.10
2022-10-29T02:26:42.328Z,13.00
2022-10-29T02:29:10.326Z,13.10
2022-10-29T02:31:38.243Z,13.10
2022-10-29T02:34:06.171Z,13.10
2022-10-29T02:36:35.638Z,13.20
2022-10-29T02:39:03.576Z,12.40
2022-10-29T02:41:31.531Z,13.10
2022-10-29T02:43:59.518Z,12.70
2022-10-29T02:46:27.493Z,13.20
2022-10-29T02:48:55.427Z,12.50
2022-10-29T02:51:23.371Z,13.20
2022-10-29T02:53:52.693Z,12.80
2022-10-29T02:56:20.632Z,13.10
2022-10-29T02:58:48.601Z,13.10
2022-10-29T03:01:16.593Z,13.20
2022-10-29T03:03:44.589Z,13.20
2022-10-29T05:14:33.828Z,12.80
2022-10-29T05:19:30.228Z,12.70
2022-10-29T05:21:59.560Z,12.50
2022-10-29T05:24:27.479Z,13.40
2022-10-29T05:26:55.437Z,13.10
2022-10-29T05:29:23.401Z,12.80
2022-10-29T05:31:54.309Z,12.50
2022-10-29T05:34:22.520Z,13.10
2022-10-29T05:36:50.688Z,13.50
2022-10-29T05:39:19.985Z,13.50
2022-10-29T05:41:48.209Z,12.50
2022-10-29T05:44:16.120Z,12.30
2022-10-29T05:46:44.095Z,12.30
2022-10-29T05:49:13.556Z,13.30
2022-10-29T05:51:41.473Z,12.50
2022-10-29T05:54:09.410Z,12.30
2022-10-29T05:56:38.843Z,12.20
2022-10-29T05:59:06.797Z,13.00
2022-10-29T06:01:34.873Z,12.50
2022-10-29T06:04:02.932Z,12.00
2022-10-29T06:06:31.165Z,12.00
2022-10-29T06:11:27.444Z,12.10
2022-10-29T06:13:57.962Z,12.20
2022-10-29T06:16:25.895Z,12.10
2022-10-29T06:18:53.851Z,12.20
2022-10-29T06:21:21.799Z,11.90
2022-10-29T06:23:50.693Z,11.90
2022-10-29T06:26:18.642Z,11.90
2022-10-29T06:28:46.592Z,11.90
2022-10-29T06:31:15.885Z,11.80
2022-10-29T06:33:43.831Z,11.80
2022-10-29T06:36:11.791Z,11.70
2022-10-29T06:38:39.736Z,12.50
2022-10-29T06:41:09.562Z,11.90
2022-10-29T06:43:37.532Z,11.80
2022-10-29T06:46:05.755Z,11.70
2022-10-29T06:48:35.052Z,11.90
2022-10-29T06:51:02.976Z,11.80
2022-10-29T06:53:30.933Z,11.70
2022-10-29T06:56:00.528Z,11.80
2022-10-29T06:58:28.484Z,11.90
2022-10-29T07:03:29.360Z,12.00
2022-10-29T07:08:28.917Z,12.00
2022-10-29T07:10:57.232Z,12.00
2022-10-29T07:13:25.227Z,12.00
2022-10-29T07:15:53.229Z,12.00
2022-10-29T07:18:21.183Z,12.10
2022-10-29T07:20:49.158Z,12.20
2022-10-29T07:23:18.502Z,12.20
2022-10-29T07:25:46.688Z,12.10
2022-10-29T07:28:16.538Z,12.20
2022-10-29T07:30:45.708Z,12.20
2022-10-29T07:33:14.602Z,12.20
2022-10-29T07:35:44.693Z,12.20
2022-10-29T07:38:13.728Z,12.40
2022-10-29T07:40:49.618Z,12.60
2022-10-29T07:43:18.367Z,12.60
2022-10-29T07:45:49.802Z,12.70
2022-10-29T07:48:18.535Z,12.70
2022-10-29T07:50:47.022Z,12.80
2022-10-29T07:53:15.276Z,12.70
2022-10-29T07:55:45.453Z,12.80
2022-10-29T07:58:13.983Z,12.90
2022-10-29T08:00:42.686Z,13.00
2022-10-29T08:03:12.591Z,13.30
2022-10-29T08:05:42.791Z,13.20
2022-10-29T08:08:11.168Z,13.40
2022-10-29T08:10:39.143Z,13.50
2022-10-29T08:13:08.740Z,13.50
2022-10-29T08:15:37.128Z,13.80
2022-10-29T08:18:12.198Z,14.00
2022-10-29T08:23:08.719Z,14.20
2022-10-29T08:25:41.198Z,14.30
2022-10-29T08:28:12.266Z,14.50
2022-10-29T08:30:40.881Z,14.50
2022-10-29T08:33:10.715Z,14.80
2022-10-29T08:35:38.712Z,14.80
2022-10-29T08:38:06.663Z,14.80
2022-10-29T08:40:44.347Z,15.30
2022-10-29T08:43:37.523Z,15.10
2022-10-29T08:46:05.716Z,15.40
2022-10-29T08:48:40.099Z,15.50
2022-10-29T08:51:15.509Z,15.40
2022-10-29T08:53:54.122Z,15.90
2022-10-29T08:56:35.565Z,15.90
2022-10-29T08:59:10.198Z,16.40
2022-10-29T09:01:38.809Z,16.20
2022-10-29T09:04:24.509Z,16.40
2022-10-29T09:07:13.774Z,16.70
2022-10-29T09:09:46.874Z,16.70
2022-10-29T09:12:30.277Z,16.70
2022-10-29T09:15:31.531Z,17.40
2022-10-29T09:18:14.865Z,17.30
2022-10-29T09:20:53.342Z,17.60
2022-10-29T09:23:31.381Z,17.70
2022-10-29T09:26:18.326Z,17.80
2022-10-29T09:29:14.845Z,18.50
2022-10-29T09:31:46.724Z,18.00
2022-10-29T09:34:19.034Z,18.30
2022-10-29T09:36:48.629Z,18.10
2022-10-29T09:39:24.599Z,18.30
2022-10-29T09:41:54.755Z,18.30
2022-10-29T09:44:27.113Z,18.50
2022-10-29T09:47:09.665Z,18.00
2022-10-29T09:49:50.004Z,18.70
2022-10-29T09:52:20.464Z,18.60
2022-10-29T09:54:50.687Z,18.80
2022-10-29T09:57:22.745Z,18.90
2022-10-29T09:59:54.741Z,18.90
2022-10-29T10:02:33.422Z,18.90
2022-10-29T10:05:08.039Z,19.10
2022-10-29T10:07:36.026Z,19.30
2022-10-29T10:10:06.119Z,19.50
2022-10-29T10:12:46.761Z,19.80
2022-10-29T10:15:24.704Z,20.00
2022-10-29T10:18:02.163Z,19.90
2022-10-29T10:20:34.441Z,19.80
2022-10-29T10:23:02.551Z,20.00
2022-10-29T10:25:36.254Z,19.90
2022-10-29T10:28:21.256Z,20.30
2022-10-29T10:31:09.023Z,20.60
2022-10-29T10:33:48.784Z,20.90
2022-10-29T10:36:17.288Z,21.00
2022-10-29T10:38:48.277Z,21.00
2022-10-29T10:41:22.434Z,21.00
2022-10-29T10:43:50.574Z,21.20
2022-10-29T10:46:27.297Z,20.90
2022-10-29T10:49:01.811Z,21.00
2022-10-29T10:51:31.733Z,21.00
2022-10-29T10:54:02.556Z,21.10
2022-10-29T10:56:31.016Z,21.00
2022-10-29T10:59:06.583Z,21.20
2022-10-29T11:01:39.537Z,21.40
2022-10-29T11:04:16.150Z,21.30
2022-10-29T11:06:49.406Z,21.40
2022-10-29T11:09:25.360Z,21.40
2022-10-29T11:11:59.714Z,21.60
2022-10-29T11:14:31.499Z,22.00
2022-10-29T11:17:02.905Z,21.70
2022-10-29T11:19:39.530Z,21.70
2022-10-29T11:22:18.351Z,21.70
2022-10-29T11:24:52.536Z,21.90
2022-10-29T11:27:32.490Z,22.00
2022-10-29T11:30:07.226Z,21.90
2022-10-29T11:32:47.671Z,22.10
2022-10-29T11:35:23.050Z,22.10
2022-10-29T11:37:58.800Z,22.20
2022-10-29T11:40:37.088Z,22.30
2022-10-29T11:43:10.623Z,22.40
2022-10-29T11:45:47.919Z,22.50
2022-10-29T11:51:05.795Z,22.70
2022-10-29T11:53:52.456Z,22.80
2022-10-29T11:56:27.103Z,22.70
2022-10-29T11:59:02.566Z,22.90
2022-10-29T12:01:38.908Z,22.90
2022-10-29T12:04:24.030Z,22.90
2022-10-29T12:07:06.423Z,23.20
2022-10-29T12:10:09.582Z,23.20
2022-10-29T12:12:49.860Z,23.50
2022-10-29T12:15:24.617Z,23.50
2022-10-29T12:18:04.928Z,23.80
2022-10-29T12:20:41.318Z,24.10
2022-10-29T12:23:25.294Z,23.90
2022-10-29T12:26:02.563Z,24.10
2022-10-29T12:28:42.808Z,24.00
2022-10-29T12:31:24.339Z,24.00
2022-10-29T12:33:59.346Z,24.00
2022-10-29T12:36:35.215Z,24.10
2022-10-29T12:39:06.781Z,24.10
2022-10-29T12:41:39.918Z,24.20
2022-10-29T12:44:15.184Z,24.30
2022-10-29T12:46:50.089Z,24.30
2022-10-29T12:49:24.152Z,25.00
2022-10-29T12:54:36.919Z,24.30
2022-10-29T12:57:06.622Z,24.20
2022-10-29T12:59:37.185Z,24.40
2022-10-29T13:02:27.034Z,24.40
2022-10-29T13:05:16.205Z,24.40
2022-10-29T13:08:12.640Z,24.50
2022-10-29T13:10:53.875Z,24.90
2022-10-29T13:13:39.643Z,24.70
2022-10-29T13:16:16.094Z,24.80
2022-10-29T13:19:11.417Z,24.80
2022-10-29T13:22:02.169Z,24.80
2022-10-29T13:24:30.763Z,24.80
2022-10-29T13:27:03.127Z,25.00
2022-10-29T13:29:48.266Z,25.00
2022-10-29T13:32:36.035Z,24.40
2022-10-29T13:35:06.648Z,24.80
2022-10-29T13:37:50.600Z,25.10
2022-10-29T13:41:01.327Z,25.10
2022-10-29T13:43:32.673Z,25.30
2022-10-29T13:46:34.427Z,25.40
2022-10-29T13:49:05.768Z,25.50
2022-10-29T13:51:39.925Z,25.50
2022-10-29T13:54:16.293Z,25.50
2022-10-29T13:56:49.361Z,26.00
2022-10-29T13:59:30.030Z,25.70
2022-10-29T14:02:06.535Z,25.80
2022-10-29T14:04:40.095Z,26.30
2022-10-29T14:07:17.715Z,26.10
2022-10-29T14:09:50.189Z,26.30
2022-10-29T14:12:23.062Z,26.60
2022-10-29T14:14:58.960Z,26.90
2022-10-29T14:17:26.908Z,27.10
2022-10-29T14:19:54.861Z,27.20
2022-10-29T14:22:33.440Z,27.40
2022-10-29T14:25:02.888Z,27.20
2022-10-29T14:27:31.113Z,26.90
2022-10-29T14:30:15.291Z,27.00
2022-10-29T14:32:45.328Z,26.70
2022-10-29T14:35:17.109Z,26.70
2022-10-29T14:37:46.432Z,26.60
2022-10-29T14:40:21.045Z,26.40
2022-10-29T14:42:54.460Z,25.50
2022-10-29T14:45:28.334Z,26.00
2022-10-29T14:47:58.276Z,25.70
2022-10-29T14:50:28.274Z,24.90
2022-10-29T14:52:58.085Z,24.70
2022-10-29T14:55:29.069Z,24.30
2022-10-29T14:58:03.766Z,23.90
2022-10-29T15:00:36.969Z,24.00
2022-10-29T15:03:07.146Z,23.50
2022-10-29T15:05:37.127Z,23.40
2022-10-29T15:08:07.482Z,23.20
2022-10-29T15:10:46.644Z,23.00
2022-10-29T15:13:30.415Z,22.70
2022-10-29T15:16:03.018Z,22.50
2022-10-29T15:18:33.237Z,21.60
2022-10-29T15:21:01.773Z,22.00
2022-10-29T15:23:34.071Z,22.00
2022-10-29T15:26:04.511Z,21.40
2022-10-29T15:31:05.072Z,20.90
2022-10-29T15:33:33.312Z,20.90
2022-10-29T15:36:03.349Z,21.30
2022-10-29T15:39:04.034Z,20.50
2022-10-29T15:41:37.488Z,20.40
2022-10-29T15:44:35.186Z,20.40
2022-10-29T15:47:21.926Z,20.10
2022-10-29T15:49:49.894Z,20.20
2022-10-29T15:52:19.940Z,20.10
2022-10-29T15:54:48.589Z,20.00
2022-10-29T15:59:45.793Z,19.70
2022-10-29T16:02:18.311Z,19.80
2022-10-29T16:04:46.426Z,19.60
2022-10-29T16:09:49.057Z,19.10
2022-10-29T16:12:17.015Z,19.20
2022-10-29T16:14:45.070Z,19.00
2022-10-29T16:17:19.011Z,18.30
2022-10-29T16:19:46.962Z,18.50
2022-10-29T16:22:17.518Z,18.30
2022-10-29T16:24:45.483Z,18.10
2022-10-29T16:27:15.723Z,17.80
2022-10-29T16:29:43.988Z,18.00
2022-10-29T16:32:15.656Z,17.90
2022-10-29T16:34:45.358Z,17.70
2022-10-29T16:37:14.688Z,17.50
2022-10-29T16:39:42.726Z,17.60
2022-10-29T16:42:25.267Z,17.60
2022-10-29T16:44:53.209Z,17.40
2022-10-29T16:47:21.156Z,17.50
2022-10-29T16:49:50.507Z,17.20
2022-10-29T16:52:22.348Z,17.30
2022-10-29T16:54:51.993Z,17.20
2022-10-29T16:59:48.200Z,17.00
2022-10-29T17:02:16.201Z,17.00
2022-10-29T17:04:44.197Z,18.00
2022-10-29T17:07:13.504Z,16.80
2022-10-29T17:09:41.476Z,16.80
2022-10-29T17:12:09.428Z,16.90
2022-10-29T17:14:37.358Z,16.90
2022-10-29T17:19:33.588Z,16.30
2022-10-29T17:22:04.118Z,16.70
2022-10-29T17:24:33.445Z,16.60
2022-10-29T17:29:35.221Z,16.50
2022-10-29T17:32:04.901Z,16.40
2022-10-29T17:34:33.111Z,16.40
2022-10-29T17:39:29.442Z,16.20
2022-10-29T17:41:58.744Z,16.10
2022-10-29T17:44:27.542Z,16.00
2022-10-29T17:46:55.848Z,15.90
2022-10-29T17:49:23.859Z,16.00
2022-10-29T17:51:51.776Z,16.30
2022-10-29T17:54:21.303Z,16.10
2022-10-29T17:56:49.310Z,16.30
2022-10-29T17:59:18.641Z,16.00
2022-10-29T18:01:46.749Z,16.10
2022-10-29T18:04:14.914Z,16.00
2022-10-29T18:06:42.925Z,15.90
2022-10-29T18:09:11.017Z,16.00
2022-10-29T18:11:38.968Z,16.00
2022-10-29T18:14:06.888Z,15.80
2022-10-29T18:16:36.201Z,16.20
2022-10-29T18:19:04.166Z,15.60
2022-10-29T18:21:32.519Z,15.60
2022-10-29T18:26:30.658Z,15.60
2022-10-29T18:29:00.084Z,15.80
2022-10-29T18:31:30.843Z,15.70
2022-10-29T18:34:01.652Z,15.50
2022-10-29T18:36:29.600Z,16.10
2022-10-29T18:41:27.669Z,15.50
2022-10-29T18:46:24.855Z,15.60
2022-10-29T18:48:53.143Z,15.50
2022-10-29T18:51:24.304Z,15.40
2022-10-29T18:53:52.929Z,15.70
2022-10-29T18:56:23.240Z,15.70
2022-10-29T18:58:51.345Z,15.20
2022-10-29T19:01:22.505Z,15.20
2022-10-29T19:03:51.888Z,15.20
2022-10-29T19:06:22.627Z,15.60
2022-10-29T19:08:50.923Z,15.70
2022-10-29T19:11:20.415Z,15.10
2022-10-29T19:13:51.365Z,15.30
2022-10-29T19:16:19.913Z,15.70
2022-10-29T19:18:48.605Z,15.30
2022-10-29T19:21:18.523Z,15.90
2022-10-29T19:23:48.039Z,15.20
2022-10-29T19:26:17.483Z,15.50
2022-10-29T19:28:46.355Z,15.00
2022-10-29T19:31:16.001Z,15.30
2022-10-29T19:33:48.043Z,15.40
2022-10-29T19:36:16.213Z,15.20
2022-10-29T19:38:44.652Z,15.10
2022-10-29T19:41:14.467Z,15.20
2022-10-29T19:43:42.403Z,14.80
2022-10-29T19:46:13.082Z,14.70
2022-10-29T19:48:41.761Z,16.40
2022-10-29T19:51:10.937Z,15.00
2022-10-29T19:53:39.848Z,14.70
2022-10-29T19:56:11.504Z,14.70
2022-10-29T19:58:40.921Z,14.80
2022-10-29T20:01:13.005Z,15.30
2022-10-29T20:06:12.251Z,14.80
2022-10-29T20:08:40.390Z,14.90
2022-10-29T20:11:08.752Z,14.60
2022-10-29T20:13:36.784Z,14.40
2022-10-29T20:16:10.347Z,15.10
2022-10-29T20:18:39.171Z,14.60
2022-10-29T20:21:08.096Z,14.40
2022-10-29T20:28:32.890Z,14.20
2022-10-29T20:31:29.697Z,14.20
2022-10-29T20:34:00.225Z,14.50
2022-10-29T20:36:30.831Z,14.10
2022-10-29T20:38:59.155Z,14.00
2022-10-29T20:41:27.765Z,12.70
2022-10-29T20:43:59.220Z,14.10
2022-10-29T20:46:28.798Z,14.00
2022-10-29T20:48:56.828Z,13.90
2022-10-29T20:51:25.175Z,13.90
2022-10-29T20:53:53.593Z,14.40
2022-10-29T20:56:23.725Z,14.30
2022-10-29T20:58:52.037Z,14.50
2022-10-29T21:01:21.843Z,13.90
2022-10-29T21:03:51.949Z,13.90
2022-10-29T21:06:20.283Z,14.20
2022-10-29T21:08:49.174Z,13.90
2022-10-29T21:11:18.273Z,14.50
2022-10-29T21:13:46.819Z,14.40
2022-10-29T21:16:17.885Z,14.60
2022-10-29T21:18:48.792Z,14.00
2022-10-29T21:21:18.269Z,14.60
2022-10-29T21:23:46.662Z,14.40
2022-10-29T21:26:16.563Z,14.30
2022-10-29T21:28:44.957Z,13.80
2022-10-29T21:31:12.960Z,14.00
2022-10-29T21:33:41.203Z,14.20
2022-10-29T21:36:11.110Z,14.30
2022-10-29T21:38:40.454Z,13.70
2022-10-29T21:41:08.400Z,13.60
2022-10-29T21:43:36.614Z,13.60
2022-10-29T21:46:04.638Z,13.70
2022-10-29T21:48:32.623Z,13.70
2022-10-29T21:51:02.814Z,13.70
2022-10-29T21:53:30.913Z,13.90
2022-10-29T21:56:01.500Z,13.50
2022-10-29T21:58:29.829Z,14.50
2022-10-29T22:01:05.417Z,13.70
2022-10-29T22:03:34.786Z,13.90
2022-10-29T22:06:06.886Z,14.10
2022-10-29T22:08:34.956Z,14.00
2022-10-29T22:11:05.085Z,14.00
2022-10-29T22:13:34.238Z,14.20
2022-10-29T22:16:02.551Z,13.50
2022-10-29T22:18:31.289Z,13.90
2022-10-29T22:21:07.960Z,13.70
2022-10-29T22:23:37.895Z,13.50
2022-10-29T22:26:07.371Z,14.30
2022-10-29T22:28:35.282Z,13.30
2022-10-29T22:31:04.552Z,14.00
2022-10-29T22:33:33.132Z,13.40
2022-10-29T22:36:10.612Z,14.00
2022-10-29T22:38:38.753Z,13.30
2022-10-29T22:41:09.766Z,13.30
2022-10-29T22:43:38.419Z,13.80
2022-10-29T22:46:07.778Z,13.30
2022-10-29T22:48:35.997Z,13.20
2022-10-29T22:51:05.826Z,13.90
2022-10-29T22:53:34.271Z,13.20
2022-10-29T22:56:03.332Z,13.20
2022-10-29T22:58:32.922Z,13.90
2022-10-29T23:01:05.522Z,13.70
2022-10-29T23:03:33.930Z,13.60
2022-10-29T23:06:04.082Z,12.70
2022-10-29T23:08:32.423Z,13.10
2022-10-29T23:11:04.378Z,13.10
2022-10-29T23:13:33.671Z,13.50
2022-10-29T23:16:01.914Z,13.50
2022-10-29T23:18:29.881Z,12.90
2022-10-29T23:21:01.802Z,13.60
2022-10-29T23:23:30.263Z,13.60
2022-10-29T23:26:01.513Z,12.90
2022-10-29T23:28:29.999Z,12.90
2022-10-29T23:31:00.582Z,13.50
2022-10-29T23:33:29.124Z,12.90
2022-10-29T23:35:57.119Z,13.70
2022-10-29T23:38:25.027Z,12.80
2022-10-29T23:40:52.986Z,12.90
2022-10-29T23:43:20.924Z,13.10
2022-10-29T23:45:48.882Z,12.70
2022-10-29T23:48:18.354Z,13.40
2022-10-29T23:50:46.650Z,13.30
2022-10-29T23:53:14.854Z,13.40
2022-10-29T23:55:43.630Z,13.20
2022-10-29T23:58:12.065Z,13.60
